JIA5240 KDCA-KCLT
Flight info
| Callsign | JIA5240 |
|---|---|
| Flight time | 1h 1m |
| Altitude | 28000 |
| Route | SCRAM6 GLANC AIROW CHSLY6 |
| Aircraft | CRJ7/M-SDFGIRWY/S |
Departure
| Time | 2026-04-25 23:12 |
|---|---|
| Airport | Ronald Reagan Washington National Airport (KDCA) |
Arrival
| Time | 2026-04-26 00:13 |
|---|---|
| Airport | Charlotte Douglas International Airport (KCLT) |
| Time | Latitude | Longitude | Altitude | Speed | Heading |
|---|---|---|---|---|---|
| 2026-04-25 22:56 | 38.85753 | -77.04250 | 22 ft | 0 kts | 317° |
| 2026-04-25 23:01 | 38.85746 | -77.04243 | 22 ft | 4 kts | 326° |
| 2026-04-25 23:02 | 38.85725 | -77.04239 | 26 ft | 4 kts | 27° |
| 2026-04-25 23:02 | 38.85710 | -77.04262 | 25 ft | 2 kts | 68° |
| 2026-04-25 23:02 | 38.85709 | -77.04264 | 25 ft | 0 kts | 68° |
| 2026-04-25 23:07 | 38.85712 | -77.04253 | 24 ft | 5 kts | 68° |
| 2026-04-25 23:07 | 38.85726 | -77.04203 | 24 ft | 0 kts | 71° |
| 2026-04-25 23:09 | 38.85729 | -77.04192 | 24 ft | 4 kts | 71° |
| 2026-04-25 23:09 | 38.85754 | -77.04155 | 23 ft | 5 kts | 15° |
| 2026-04-25 23:09 | 38.85797 | -77.04173 | 24 ft | 14 kts | 322° |
| 2026-04-25 23:09 | 38.85877 | -77.04251 | 26 ft | 14 kts | 323° |
| 2026-04-25 23:10 | 38.85948 | -77.04321 | 22 ft | 12 kts | 323° |
| 2026-04-25 23:10 | 38.86010 | -77.04381 | 22 ft | 10 kts | 324° |
| 2026-04-25 23:10 | 38.86040 | -77.04396 | 22 ft | 0 kts | 358° |
| 2026-04-25 23:10 | 38.86043 | -77.04396 | 22 ft | 3 kts | 1° |
| 2026-04-25 23:11 | 38.86086 | -77.04363 | 21 ft | 9 kts | 52° |
| 2026-04-25 23:11 | 38.86098 | -77.04315 | 21 ft | 4 kts | 116° |
| 2026-04-25 23:11 | 38.86064 | -77.04278 | 22 ft | 22 kts | 142° |
| 2026-04-25 23:11 | 38.85746 | -77.03969 | 24 ft | 93 kts | 142° |
| 2026-04-25 23:12 | 38.85070 | -77.03309 | 63 ft | 143 kts | 143° |
| 2026-04-25 23:12 | 38.84225 | -77.02564 | 662 ft | 146 kts | 144° |
| 2026-04-25 23:12 | 38.83267 | -77.02195 | 1410 ft | 151 kts | 181° |
| 2026-04-25 23:12 | 38.82191 | -77.02526 | 1981 ft | 165 kts | 188° |
| 2026-04-25 23:13 | 38.81028 | -77.02798 | 2580 ft | 175 kts | 186° |
| 2026-04-25 23:13 | 38.79747 | -77.03005 | 3129 ft | 194 kts | 186° |
| 2026-04-25 23:13 | 38.78364 | -77.03173 | 3786 ft | 205 kts | 186° |
| 2026-04-25 23:13 | 38.76884 | -77.03324 | 4312 ft | 224 kts | 192° |
| 2026-04-25 23:14 | 38.75475 | -77.04230 | 4748 ft | 236 kts | 231° |
| 2026-04-25 23:14 | 38.74772 | -77.06154 | 5256 ft | 247 kts | 258° |
| 2026-04-25 23:14 | 38.74529 | -77.08372 | 5952 ft | 255 kts | 266° |
| 2026-04-25 23:14 | 38.74452 | -77.09992 | 6579 ft | 255 kts | 267° |
| 2026-04-25 23:15 | 38.74377 | -77.12240 | 7373 ft | 258 kts | 265° |
| 2026-04-25 23:15 | 38.73926 | -77.14471 | 8164 ft | 261 kts | 250° |
| 2026-04-25 23:15 | 38.73192 | -77.16623 | 8946 ft | 266 kts | 246° |
| 2026-04-25 23:15 | 38.72370 | -77.18764 | 9748 ft | 269 kts | 245° |
| 2026-04-25 23:16 | 38.71534 | -77.20935 | 10423 ft | 276 kts | 246° |
| 2026-04-25 23:16 | 38.70594 | -77.23187 | 10679 ft | 297 kts | 240° |
| 2026-04-25 23:16 | 38.69374 | -77.25424 | 10993 ft | 315 kts | 236° |
| 2026-04-25 23:16 | 38.68019 | -77.27718 | 11375 ft | 329 kts | 236° |
| 2026-04-25 23:17 | 38.66626 | -77.30065 | 12100 ft | 332 kts | 236° |
| 2026-04-25 23:17 | 38.65257 | -77.32452 | 12904 ft | 331 kts | 237° |
| 2026-04-25 23:17 | 38.63902 | -77.34846 | 13625 ft | 334 kts | 237° |
| 2026-04-25 23:17 | 38.62539 | -77.37270 | 14119 ft | 337 kts | 237° |
| 2026-04-25 23:18 | 38.61164 | -77.39723 | 14576 ft | 340 kts | 237° |
| 2026-04-25 23:18 | 38.59776 | -77.42186 | 15048 ft | 343 kts | 237° |
| 2026-04-25 23:18 | 38.58378 | -77.44674 | 15512 ft | 346 kts | 237° |
| 2026-04-25 23:18 | 38.56972 | -77.47178 | 15976 ft | 348 kts | 237° |
| 2026-04-25 23:19 | 38.55569 | -77.49667 | 16406 ft | 351 kts | 236° |
| 2026-04-25 23:19 | 38.54138 | -77.52203 | 16800 ft | 353 kts | 236° |
| 2026-04-25 23:19 | 38.52694 | -77.54758 | 17230 ft | 356 kts | 236° |
| 2026-04-25 23:19 | 38.51243 | -77.57328 | 17623 ft | 358 kts | 236° |
| 2026-04-25 23:20 | 38.49780 | -77.59921 | 18017 ft | 360 kts | 236° |
| 2026-04-25 23:20 | 38.48310 | -77.62519 | 18381 ft | 362 kts | 236° |
| 2026-04-25 23:20 | 38.46826 | -77.65127 | 18716 ft | 364 kts | 236° |
| 2026-04-25 23:20 | 38.45337 | -77.67744 | 19045 ft | 365 kts | 234° |
| 2026-04-25 23:21 | 38.43753 | -77.70281 | 19372 ft | 366 kts | 231° |
| 2026-04-25 23:21 | 38.42067 | -77.72729 | 19685 ft | 368 kts | 230° |
| 2026-04-25 23:21 | 38.40356 | -77.75162 | 19990 ft | 369 kts | 230° |
| 2026-04-25 23:21 | 38.38641 | -77.77595 | 20277 ft | 370 kts | 229° |
| 2026-04-25 23:22 | 38.36938 | -77.80054 | 20561 ft | 371 kts | 231° |
| 2026-04-25 23:22 | 38.35278 | -77.82581 | 20827 ft | 372 kts | 232° |
| 2026-04-25 23:22 | 38.33630 | -77.85130 | 21074 ft | 373 kts | 231° |
| 2026-04-25 23:23 | 38.30313 | -77.90229 | 21555 ft | 375 kts | 231° |
| 2026-04-25 23:23 | 38.28644 | -77.92787 | 21789 ft | 376 kts | 231° |
| 2026-04-25 23:23 | 38.26969 | -77.95353 | 22000 ft | 377 kts | 231° |
| 2026-04-25 23:23 | 38.25293 | -77.97922 | 22215 ft | 379 kts | 231° |
| 2026-04-25 23:24 | 38.23605 | -78.00507 | 22420 ft | 380 kts | 231° |
| 2026-04-25 23:24 | 38.21912 | -78.03092 | 22618 ft | 381 kts | 231° |
| 2026-04-25 23:24 | 38.20214 | -78.05682 | 22831 ft | 382 kts | 231° |
| 2026-04-25 23:24 | 38.18510 | -78.08285 | 23031 ft | 383 kts | 231° |
| 2026-04-25 23:25 | 38.16804 | -78.10887 | 23210 ft | 384 kts | 231° |
| 2026-04-25 23:25 | 38.15094 | -78.13498 | 23397 ft | 385 kts | 231° |
| 2026-04-25 23:25 | 38.13377 | -78.16114 | 23562 ft | 386 kts | 231° |
| 2026-04-25 23:25 | 38.11657 | -78.18725 | 23709 ft | 386 kts | 231° |
| 2026-04-25 23:26 | 38.09957 | -78.21316 | 23853 ft | 387 kts | 231° |
| 2026-04-25 23:26 | 38.08228 | -78.23934 | 23995 ft | 387 kts | 231° |
| 2026-04-25 23:26 | 38.06511 | -78.26580 | 24128 ft | 388 kts | 232° |
| 2026-04-25 23:26 | 38.04810 | -78.29243 | 24245 ft | 389 kts | 232° |
| 2026-04-25 23:27 | 38.03100 | -78.31905 | 24382 ft | 390 kts | 232° |
| 2026-04-25 23:27 | 38.01390 | -78.34575 | 24512 ft | 390 kts | 232° |
| 2026-04-25 23:27 | 37.99675 | -78.37241 | 24636 ft | 390 kts | 232° |
| 2026-04-25 23:27 | 37.97958 | -78.39913 | 24759 ft | 391 kts | 232° |
| 2026-04-25 23:28 | 37.96239 | -78.42586 | 24869 ft | 392 kts | 232° |
| 2026-04-25 23:28 | 37.94513 | -78.45265 | 25201 ft | 393 kts | 232° |
| 2026-04-25 23:28 | 37.92784 | -78.47953 | 25513 ft | 394 kts | 232° |
| 2026-04-25 23:28 | 37.91048 | -78.50642 | 25813 ft | 395 kts | 232° |
| 2026-04-25 23:29 | 37.89306 | -78.53339 | 26099 ft | 397 kts | 232° |
| 2026-04-25 23:29 | 37.87555 | -78.56053 | 26386 ft | 398 kts | 232° |
| 2026-04-25 23:29 | 37.85798 | -78.58769 | 26668 ft | 399 kts | 232° |
| 2026-04-25 23:29 | 37.84036 | -78.61496 | 26949 ft | 401 kts | 232° |
| 2026-04-25 23:30 | 37.82269 | -78.64222 | 27212 ft | 402 kts | 232° |
| 2026-04-25 23:30 | 37.80489 | -78.66968 | 27454 ft | 403 kts | 232° |
| 2026-04-25 23:30 | 37.78709 | -78.69713 | 27724 ft | 405 kts | 232° |
| 2026-04-25 23:30 | 37.76911 | -78.72486 | 27833 ft | 410 kts | 232° |
| 2026-04-25 23:31 | 37.75089 | -78.75288 | 27878 ft | 415 kts | 232° |
| 2026-04-25 23:31 | 37.73873 | -78.77153 | 27892 ft | 416 kts | 232° |
| 2026-04-25 23:31 | 37.71159 | -78.80674 | 27915 ft | 420 kts | 224° |
| 2026-04-25 23:31 | 37.68933 | -78.82993 | 27917 ft | 421 kts | 221° |
| 2026-04-25 23:32 | 37.66577 | -78.85205 | 27913 ft | 422 kts | 218° |
| 2026-04-25 23:32 | 37.64186 | -78.87356 | 27894 ft | 423 kts | 218° |
| 2026-04-25 23:32 | 37.61788 | -78.89512 | 27901 ft | 423 kts | 219° |
| 2026-04-25 23:32 | 37.59415 | -78.91707 | 27908 ft | 423 kts | 219° |
| 2026-04-25 23:33 | 37.57852 | -78.93161 | 27911 ft | 423 kts | 219° |
| 2026-04-25 23:33 | 37.55486 | -78.95370 | 27916 ft | 423 kts | 219° |
| 2026-04-25 23:33 | 37.53116 | -78.97577 | 27917 ft | 423 kts | 219° |
| 2026-04-25 23:33 | 37.50751 | -78.99780 | 27912 ft | 423 kts | 219° |
| 2026-04-25 23:34 | 37.48386 | -79.01979 | 27912 ft | 422 kts | 219° |
| 2026-04-25 23:34 | 37.46027 | -79.04164 | 27914 ft | 420 kts | 219° |
| 2026-04-25 23:34 | 37.43673 | -79.06336 | 27909 ft | 419 kts | 219° |
| 2026-04-25 23:34 | 37.41320 | -79.08500 | 27909 ft | 418 kts | 219° |
| 2026-04-25 23:35 | 37.38942 | -79.10600 | 27910 ft | 418 kts | 218° |
| 2026-04-25 23:35 | 37.36558 | -79.12684 | 27910 ft | 417 kts | 218° |
| 2026-04-25 23:35 | 37.34181 | -79.14762 | 27908 ft | 416 kts | 218° |
| 2026-04-25 23:35 | 37.31810 | -79.16834 | 27910 ft | 415 kts | 218° |
| 2026-04-25 23:36 | 37.29440 | -79.18896 | 27913 ft | 414 kts | 218° |
| 2026-04-25 23:36 | 37.27073 | -79.20959 | 27914 ft | 414 kts | 218° |
| 2026-04-25 23:36 | 37.24704 | -79.23030 | 27893 ft | 415 kts | 218° |
| 2026-04-25 23:36 | 37.22330 | -79.25096 | 27876 ft | 415 kts | 218° |
| 2026-04-25 23:37 | 37.19979 | -79.27174 | 27932 ft | 413 kts | 219° |
| 2026-04-25 23:37 | 37.17643 | -79.29275 | 27958 ft | 413 kts | 219° |
| 2026-04-25 23:37 | 37.15309 | -79.31381 | 27967 ft | 414 kts | 218° |
| 2026-04-25 23:37 | 37.12979 | -79.33477 | 27967 ft | 414 kts | 218° |
| 2026-04-25 23:38 | 37.10634 | -79.35589 | 27968 ft | 415 kts | 219° |
| 2026-04-25 23:38 | 37.08314 | -79.37677 | 27978 ft | 416 kts | 218° |
| 2026-04-25 23:38 | 37.05960 | -79.39790 | 27971 ft | 417 kts | 218° |
| 2026-04-25 23:38 | 37.03600 | -79.41908 | 27966 ft | 418 kts | 218° |
| 2026-04-25 23:39 | 37.01232 | -79.44021 | 27971 ft | 418 kts | 218° |
| 2026-04-25 23:39 | 36.98854 | -79.46129 | 27960 ft | 419 kts | 218° |
| 2026-04-25 23:39 | 36.96437 | -79.48184 | 27965 ft | 420 kts | 217° |
| 2026-04-25 23:39 | 36.94017 | -79.50231 | 27960 ft | 420 kts | 217° |
| 2026-04-25 23:40 | 36.91592 | -79.52278 | 27967 ft | 420 kts | 217° |
| 2026-04-25 23:40 | 36.89166 | -79.54323 | 27967 ft | 421 kts | 217° |
| 2026-04-25 23:40 | 36.86742 | -79.56366 | 27961 ft | 421 kts | 217° |
| 2026-04-25 23:40 | 36.84318 | -79.58408 | 27969 ft | 421 kts | 217° |
| 2026-04-25 23:41 | 36.81895 | -79.60454 | 27973 ft | 421 kts | 217° |
| 2026-04-25 23:41 | 36.79466 | -79.62492 | 27973 ft | 421 kts | 217° |
| 2026-04-25 23:41 | 36.77033 | -79.64524 | 27962 ft | 420 kts | 217° |
| 2026-04-25 23:41 | 36.74600 | -79.66561 | 27969 ft | 420 kts | 217° |
| 2026-04-25 23:42 | 36.72175 | -79.68595 | 27972 ft | 419 kts | 217° |
| 2026-04-25 23:42 | 36.69758 | -79.70620 | 27988 ft | 419 kts | 217° |
| 2026-04-25 23:42 | 36.67339 | -79.72639 | 27996 ft | 418 kts | 217° |
| 2026-04-25 23:42 | 36.64956 | -79.74632 | 28000 ft | 417 kts | 217° |
| 2026-04-25 23:43 | 36.62546 | -79.76645 | 28006 ft | 417 kts | 217° |
| 2026-04-25 23:43 | 36.57733 | -79.80657 | 28015 ft | 416 kts | 217° |
| 2026-04-25 23:43 | 36.55325 | -79.82662 | 27994 ft | 416 kts | 217° |
| 2026-04-25 23:44 | 36.52923 | -79.84662 | 28005 ft | 415 kts | 217° |
| 2026-04-25 23:44 | 36.48127 | -79.88657 | 27924 ft | 416 kts | 216° |
| 2026-04-25 23:44 | 36.45711 | -79.90658 | 27567 ft | 418 kts | 216° |
| 2026-04-25 23:45 | 36.43292 | -79.92664 | 27211 ft | 414 kts | 216° |
| 2026-04-25 23:45 | 36.40944 | -79.94609 | 26854 ft | 399 kts | 216° |
| 2026-04-25 23:45 | 36.38664 | -79.96495 | 26497 ft | 391 kts | 217° |
| 2026-04-25 23:45 | 36.36412 | -79.98364 | 26157 ft | 388 kts | 217° |
| 2026-04-25 23:46 | 36.34174 | -80.00222 | 25829 ft | 387 kts | 217° |
| 2026-04-25 23:46 | 36.31932 | -80.02073 | 25510 ft | 386 kts | 216° |
| 2026-04-25 23:46 | 36.29698 | -80.03913 | 25197 ft | 386 kts | 216° |
| 2026-04-25 23:46 | 36.27465 | -80.05754 | 24872 ft | 385 kts | 216° |
| 2026-04-25 23:47 | 36.25238 | -80.07593 | 24575 ft | 385 kts | 216° |
| 2026-04-25 23:47 | 36.23006 | -80.09430 | 24276 ft | 384 kts | 216° |
| 2026-04-25 23:47 | 36.20778 | -80.11262 | 23984 ft | 384 kts | 216° |
| 2026-04-25 23:47 | 36.18553 | -80.13094 | 23696 ft | 382 kts | 216° |
| 2026-04-25 23:48 | 36.16348 | -80.14904 | 23385 ft | 378 kts | 216° |
| 2026-04-25 23:48 | 36.14167 | -80.16696 | 23048 ft | 375 kts | 216° |
| 2026-04-25 23:48 | 36.12001 | -80.18478 | 22701 ft | 372 kts | 215° |
| 2026-04-25 23:48 | 36.09856 | -80.20233 | 22350 ft | 366 kts | 216° |
| 2026-04-25 23:49 | 36.07759 | -80.21946 | 22010 ft | 357 kts | 216° |
| 2026-04-25 23:49 | 36.05799 | -80.23555 | 21686 ft | 353 kts | 216° |
| 2026-04-25 23:49 | 36.03993 | -80.25039 | 21402 ft | 353 kts | 216° |
| 2026-04-25 23:49 | 36.01968 | -80.26695 | 21088 ft | 354 kts | 216° |
| 2026-04-25 23:50 | 35.99887 | -80.28404 | 20757 ft | 354 kts | 216° |
| 2026-04-25 23:50 | 35.97859 | -80.30061 | 20446 ft | 354 kts | 215° |
| 2026-04-25 23:50 | 35.95820 | -80.31724 | 20152 ft | 348 kts | 215° |
| 2026-04-25 23:50 | 35.93823 | -80.33354 | 19857 ft | 341 kts | 215° |
| 2026-04-25 23:51 | 35.91855 | -80.34958 | 19580 ft | 338 kts | 215° |
| 2026-04-25 23:51 | 35.89901 | -80.36552 | 19305 ft | 337 kts | 215° |
| 2026-04-25 23:51 | 35.87947 | -80.38147 | 19015 ft | 337 kts | 215° |
| 2026-04-25 23:51 | 35.85984 | -80.39748 | 18746 ft | 337 kts | 215° |
| 2026-04-25 23:52 | 35.84050 | -80.41316 | 18493 ft | 326 kts | 215° |
| 2026-04-25 23:52 | 35.82180 | -80.42815 | 18210 ft | 316 kts | 214° |
| 2026-04-25 23:52 | 35.80354 | -80.44261 | 17885 ft | 308 kts | 214° |
| 2026-04-25 23:52 | 35.78542 | -80.45698 | 17562 ft | 313 kts | 214° |
| 2026-04-25 23:53 | 35.76697 | -80.47155 | 17252 ft | 316 kts | 214° |
| 2026-04-25 23:53 | 35.74868 | -80.48605 | 16960 ft | 310 kts | 214° |
| 2026-04-25 23:53 | 35.73068 | -80.50031 | 16677 ft | 305 kts | 214° |
| 2026-04-25 23:53 | 35.71302 | -80.51433 | 16395 ft | 300 kts | 214° |
| 2026-04-25 23:54 | 35.69555 | -80.52809 | 16118 ft | 296 kts | 213° |
| 2026-04-25 23:54 | 35.67818 | -80.54140 | 15844 ft | 293 kts | 213° |
| 2026-04-25 23:54 | 35.66088 | -80.55455 | 15573 ft | 292 kts | 213° |
| 2026-04-25 23:54 | 35.64359 | -80.56768 | 15324 ft | 292 kts | 213° |
| 2026-04-25 23:55 | 35.62619 | -80.58091 | 15080 ft | 295 kts | 213° |
| 2026-04-25 23:55 | 35.60887 | -80.59406 | 14841 ft | 296 kts | 213° |
| 2026-04-25 23:55 | 35.59127 | -80.60738 | 14605 ft | 297 kts | 213° |
| 2026-04-25 23:55 | 35.57365 | -80.62073 | 14368 ft | 297 kts | 213° |
| 2026-04-25 23:56 | 35.55609 | -80.63406 | 14138 ft | 297 kts | 213° |
| 2026-04-25 23:56 | 35.53856 | -80.64734 | 13912 ft | 295 kts | 212° |
| 2026-04-25 23:56 | 35.52104 | -80.66038 | 13678 ft | 294 kts | 212° |
| 2026-04-25 23:56 | 35.50355 | -80.67337 | 13417 ft | 293 kts | 212° |
| 2026-04-25 23:57 | 35.48616 | -80.68635 | 13161 ft | 291 kts | 212° |
| 2026-04-25 23:57 | 35.46891 | -80.69922 | 12902 ft | 290 kts | 212° |
| 2026-04-25 23:57 | 35.45172 | -80.71199 | 12646 ft | 288 kts | 212° |
| 2026-04-25 23:57 | 35.43467 | -80.72472 | 12393 ft | 287 kts | 212° |
| 2026-04-25 23:58 | 35.41769 | -80.73741 | 12144 ft | 285 kts | 212° |
| 2026-04-25 23:58 | 35.40073 | -80.75000 | 11893 ft | 283 kts | 212° |
| 2026-04-25 23:58 | 35.38409 | -80.76230 | 11634 ft | 275 kts | 212° |
| 2026-04-25 23:58 | 35.36793 | -80.77431 | 11378 ft | 268 kts | 212° |
| 2026-04-25 23:59 | 35.35234 | -80.78588 | 11129 ft | 257 kts | 212° |
| 2026-04-25 23:59 | 35.33726 | -80.79691 | 10876 ft | 248 kts | 212° |
| 2026-04-25 23:59 | 35.32270 | -80.80765 | 10618 ft | 241 kts | 212° |
| 2026-04-25 23:59 | 35.30847 | -80.81825 | 10371 ft | 237 kts | 212° |
| 2026-04-26 00:00 | 35.29453 | -80.82857 | 10160 ft | 230 kts | 212° |
| 2026-04-26 00:00 | 35.27978 | -80.83597 | 10077 ft | 236 kts | 189° |
| 2026-04-26 00:00 | 35.26313 | -80.83677 | 10034 ft | 241 kts | 182° |
| 2026-04-26 00:00 | 35.24659 | -80.83552 | 9992 ft | 236 kts | 178° |
| 2026-04-26 00:01 | 35.23011 | -80.83357 | 10000 ft | 240 kts | 178° |
| 2026-04-26 00:01 | 35.21342 | -80.83161 | 10004 ft | 241 kts | 178° |
| 2026-04-26 00:01 | 35.19650 | -80.82990 | 9702 ft | 246 kts | 179° |
| 2026-04-26 00:01 | 35.17946 | -80.82845 | 9308 ft | 245 kts | 179° |
| 2026-04-26 00:02 | 35.16229 | -80.82702 | 8995 ft | 248 kts | 179° |
| 2026-04-26 00:02 | 35.14507 | -80.82558 | 8703 ft | 245 kts | 179° |
| 2026-04-26 00:02 | 35.12859 | -80.82420 | 8460 ft | 228 kts | 179° |
| 2026-04-26 00:02 | 35.11294 | -80.82292 | 8220 ft | 225 kts | 180° |
| 2026-04-26 00:03 | 35.09734 | -80.82162 | 7961 ft | 225 kts | 179° |
| 2026-04-26 00:03 | 35.08179 | -80.81936 | 7702 ft | 227 kts | 170° |
| 2026-04-26 00:03 | 35.06655 | -80.81575 | 7445 ft | 225 kts | 177° |
| 2026-04-26 00:03 | 35.05098 | -80.81397 | 7190 ft | 225 kts | 179° |
| 2026-04-26 00:04 | 35.03536 | -80.81260 | 6927 ft | 225 kts | 180° |
| 2026-04-26 00:04 | 35.01973 | -80.81142 | 6665 ft | 226 kts | 180° |
| 2026-04-26 00:04 | 35.00406 | -80.81030 | 6411 ft | 226 kts | 180° |
| 2026-04-26 00:04 | 34.98836 | -80.80922 | 6147 ft | 226 kts | 180° |
| 2026-04-26 00:05 | 34.97269 | -80.80818 | 5878 ft | 226 kts | 180° |
| 2026-04-26 00:05 | 34.95702 | -80.80718 | 5604 ft | 226 kts | 180° |
| 2026-04-26 00:05 | 34.94153 | -80.80790 | 5312 ft | 218 kts | 199° |
| 2026-04-26 00:05 | 34.93061 | -80.81874 | 5114 ft | 200 kts | 243° |
| 2026-04-26 00:06 | 34.92734 | -80.83489 | 5016 ft | 196 kts | 259° |
| 2026-04-26 00:06 | 34.92609 | -80.85118 | 4958 ft | 193 kts | 277° |
| 2026-04-26 00:06 | 34.93217 | -80.86582 | 4972 ft | 196 kts | 301° |
| 2026-04-26 00:06 | 34.93982 | -80.87947 | 4975 ft | 195 kts | 306° |
| 2026-04-26 00:07 | 34.94886 | -80.89181 | 4983 ft | 195 kts | 310° |
| 2026-04-26 00:07 | 34.95841 | -80.90357 | 4983 ft | 196 kts | 316° |
| 2026-04-26 00:07 | 34.97097 | -80.90955 | 4992 ft | 197 kts | 355° |
| 2026-04-26 00:07 | 34.98411 | -80.90654 | 4984 ft | 189 kts | 9° |
| 2026-04-26 00:08 | 34.99704 | -80.90792 | 4709 ft | 187 kts | 343° |
| 2026-04-26 00:08 | 35.00954 | -80.91145 | 4487 ft | 186 kts | 343° |
| 2026-04-26 00:08 | 35.02222 | -80.91471 | 4236 ft | 188 kts | 344° |
| 2026-04-26 00:08 | 35.03517 | -80.91775 | 3997 ft | 191 kts | 345° |
| 2026-04-26 00:09 | 35.04833 | -80.92058 | 3738 ft | 193 kts | 347° |
| 2026-04-26 00:09 | 35.06177 | -80.92226 | 3477 ft | 192 kts | 351° |
| 2026-04-26 00:09 | 35.07481 | -80.92343 | 3216 ft | 183 kts | 352° |
| 2026-04-26 00:09 | 35.08714 | -80.92441 | 2951 ft | 173 kts | 352° |
| 2026-04-26 00:10 | 35.09879 | -80.92536 | 2742 ft | 163 kts | 352° |
| 2026-04-26 00:10 | 35.10981 | -80.92635 | 2511 ft | 153 kts | 352° |
| 2026-04-26 00:10 | 35.11990 | -80.92716 | 2340 ft | 140 kts | 352° |
| 2026-04-26 00:10 | 35.12973 | -80.92804 | 2161 ft | 141 kts | 352° |
| 2026-04-26 00:11 | 35.13953 | -80.92888 | 1984 ft | 141 kts | 353° |
| 2026-04-26 00:11 | 35.14938 | -80.92972 | 1807 ft | 143 kts | 354° |
| 2026-04-26 00:11 | 35.15929 | -80.93059 | 1635 ft | 143 kts | 354° |
| 2026-04-26 00:11 | 35.16930 | -80.93149 | 1419 ft | 143 kts | 355° |
| 2026-04-26 00:12 | 35.17889 | -80.93226 | 1218 ft | 137 kts | 355° |
| 2026-04-26 00:12 | 35.18842 | -80.93303 | 1006 ft | 138 kts | 355° |
| 2026-04-26 00:12 | 35.19794 | -80.93388 | 807 ft | 136 kts | 355° |
| 2026-04-26 00:12 | 35.20684 | -80.93463 | 734 ft | 104 kts | 355° |
| 2026-04-26 00:13 | 35.21232 | -80.93512 | 732 ft | 57 kts | 356° |
| 2026-04-26 00:13 | 35.21538 | -80.93538 | 733 ft | 20 kts | 348° |
| 2026-04-26 00:13 | 35.21570 | -80.93594 | 733 ft | 10 kts | 263° |
| 2026-04-26 00:13 | 35.21586 | -80.93672 | 731 ft | 8 kts | 335° |
| 2026-04-26 00:14 | 35.21635 | -80.93682 | 731 ft | 10 kts | 353° |
| 2026-04-26 00:14 | 35.21734 | -80.93688 | 732 ft | 16 kts | 355° |
| 2026-04-26 00:14 | 35.21839 | -80.93698 | 733 ft | 20 kts | 356° |
| 2026-04-26 00:14 | 35.21982 | -80.93712 | 731 ft | 19 kts | 358° |
| 2026-04-26 00:15 | 35.22104 | -80.93721 | 731 ft | 19 kts | 356° |
| 2026-04-26 00:15 | 35.22251 | -80.93734 | 731 ft | 26 kts | 356° |
| 2026-04-26 00:15 | 35.22381 | -80.93746 | 731 ft | 8 kts | 346° |
| 2026-04-26 00:15 | 35.22396 | -80.93771 | 731 ft | 7 kts | 267° |
| 2026-04-26 00:16 | 35.22374 | -80.93821 | 731 ft | 7 kts | 236° |
| 2026-04-26 00:16 | 35.22364 | -80.93869 | 731 ft | 2 kts | 264° |
| 2026-04-26 00:16 | 35.22363 | -80.93873 | 731 ft | 0 kts | 264° |
| 2026-04-26 00:16 | 35.22363 | -80.93874 | 731 ft | 0 kts | 265° |
| 2026-04-26 00:21 | 35.22363 | -80.93875 | 731 ft | 0 kts | 266° |